<?xml version="1.0" encoding="UTF-8" standalone="no" ?>
<gpx xmlns="http://www.topografix.com/GPX/1/1" xmlns:xsi="http://www.w3.org/2001/XMLSchema-instance" xsi:schemaLocation="http://www.topografix.com/GPX/1/1 http://www.topografix.com/GPX/1/1/gpx.xsd" version="1.1" creator="VisuGPX - https://www.visugpx.com">
  <metadata>
    <name>Rocher de Chantemerle par les pas de l'Aulagnier et Pourceau (Vercors)</name>
    <desc><![CDATA[Au départ de  [b]Beauregard[/b]
.
Autres sorties dans le Vercors --> [url]https://www.visugpx.com/membres/87/vercors/[/url]]]></desc>
  </metadata>
  <wpt lat="44.98338" lon="5.21107">
    <ele>807.74</ele>
    <name><![CDATA[pas pourceau]]></name>
    <type><![CDATA[Jalon]]></type>
  </wpt>
  <wpt lat="44.98342" lon="5.21111">
    <ele>809.78</ele>
    <name><![CDATA[0000058]]></name>
    <type><![CDATA[Jalon]]></type>
  </wpt>
  <trk>
    <name><![CDATA[2021-05-20 pas de l'Aulagnier]]></name>
    <desc><![CDATA[<p>Heure de départ: 08:41 20 mai 2021<br/>Heure d'arrivée: 13:24 20 mai 2021<br/>Distance: 11,7 km (04:42)<br/>Temps déplacement: 04:21<br/>Vitesse moyenne: 2,48 km/h<br/>Vitesse moyenne mouv.: 2,67 km/h<br/>Vitesse Max.: 6,89 km/h<br/>Altitude minimale: 500 m<br/>Altitude maximale: 1299 m<br/>Vitesse de montée: 394,3 m/h<br/>Vitesse de descente: 360,7 m/h<br/>Gain d'altitude: 891 m<br/>Perte d'altitude: 863 m<br/>Temps de montée: 02:15<br/>Temps de descente: 02:23<br/></p><hr align="center" width="480" style="height: 2px; width: 517px"/>]]></desc>
    <trkseg>
      <trkpt lat="44.99209" lon="5.19781">
        <ele>500.85</ele>
        <time>2021-05-20T06:41:47.000Z</time>
      </trkpt>
      <trkpt lat="44.9919" lon="5.19777">
        <ele>504.52</ele>
        <time>2021-05-20T06:42:27.000Z</time>
      </trkpt>
      <trkpt lat="44.99172" lon="5.19783">
        <ele>506.1</ele>
        <time>2021-05-20T06:42:43.200Z</time>
      </trkpt>
      <trkpt lat="44.99161" lon="5.19804">
        <ele>506.62</ele>
        <time>2021-05-20T06:42:58.497Z</time>
      </trkpt>
      <trkpt lat="44.99151" lon="5.19827">
        <ele>505.78</ele>
        <time>2021-05-20T06:43:24.326Z</time>
      </trkpt>
      <trkpt lat="44.99144" lon="5.19851">
        <ele>506.98</ele>
        <time>2021-05-20T06:43:38.725Z</time>
      </trkpt>
      <trkpt lat="44.9913" lon="5.19869">
        <ele>507.81</ele>
        <time>2021-05-20T06:43:53.642Z</time>
      </trkpt>
      <trkpt lat="44.99112" lon="5.19864">
        <ele>507.62</ele>
        <time>2021-05-20T06:44:09.600Z</time>
      </trkpt>
      <trkpt lat="44.99095" lon="5.19851">
        <ele>509.65</ele>
        <time>2021-05-20T06:44:22.215Z</time>
      </trkpt>
      <trkpt lat="44.99078" lon="5.19841">
        <ele>510.52</ele>
        <time>2021-05-20T06:44:41.419Z</time>
      </trkpt>
      <trkpt lat="44.9906" lon="5.19833">
        <ele>511.87</ele>
        <time>2021-05-20T06:44:56.623Z</time>
      </trkpt>
      <trkpt lat="44.99043" lon="5.1982">
        <ele>512.91</ele>
        <time>2021-05-20T06:45:13.821Z</time>
      </trkpt>
      <trkpt lat="44.99028" lon="5.19805">
        <ele>514.69</ele>
        <time>2021-05-20T06:45:26.679Z</time>
      </trkpt>
      <trkpt lat="44.99009" lon="5.19802">
        <ele>516.21</ele>
        <time>2021-05-20T06:45:41.618Z</time>
      </trkpt>
      <trkpt lat="44.98993" lon="5.19814">
        <ele>516.74</ele>
        <time>2021-05-20T06:45:56.036Z</time>
      </trkpt>
      <trkpt lat="44.98974" lon="5.19814">
        <ele>519.73</ele>
        <time>2021-05-20T06:46:12.694Z</time>
      </trkpt>
      <trkpt lat="44.98956" lon="5.19813">
        <ele>520.86</ele>
        <time>2021-05-20T06:46:27.703Z</time>
      </trkpt>
      <trkpt lat="44.98938" lon="5.19812">
        <ele>522.47</ele>
        <time>2021-05-20T06:46:40.804Z</time>
      </trkpt>
      <trkpt lat="44.98919" lon="5.19811">
        <ele>522.91</ele>
        <time>2021-05-20T06:46:55.849Z</time>
      </trkpt>
      <trkpt lat="44.98901" lon="5.19803">
        <ele>524.71</ele>
        <time>2021-05-20T06:47:22.641Z</time>
      </trkpt>
      <trkpt lat="44.98885" lon="5.19791">
        <ele>527.2</ele>
        <time>2021-05-20T06:47:41.559Z</time>
      </trkpt>
      <trkpt lat="44.9887" lon="5.19775">
        <ele>530.69</ele>
        <time>2021-05-20T06:48:02.478Z</time>
      </trkpt>
      <trkpt lat="44.98854" lon="5.19763">
        <ele>531.73</ele>
        <time>2021-05-20T06:48:19.797Z</time>
      </trkpt>
      <trkpt lat="44.98835" lon="5.19759">
        <ele>533.59</ele>
        <time>2021-05-20T06:48:35.882Z</time>
      </trkpt>
      <trkpt lat="44.98816" lon="5.19759">
        <ele>537.02</ele>
        <time>2021-05-20T06:49:15.338Z</time>
      </trkpt>
      <trkpt lat="44.98798" lon="5.19754">
        <ele>538.75</ele>
        <time>2021-05-20T06:49:28.409Z</time>
      </trkpt>
      <trkpt lat="44.98781" lon="5.19742">
        <ele>540.38</ele>
        <time>2021-05-20T06:49:46.404Z</time>
      </trkpt>
      <trkpt lat="44.98764" lon="5.19733">
        <ele>540.27</ele>
        <time>2021-05-20T06:50:12.644Z</time>
      </trkpt>
      <trkpt lat="44.98747" lon="5.19722">
        <ele>542.4</ele>
        <time>2021-05-20T06:50:29.394Z</time>
      </trkpt>
      <trkpt lat="44.98729" lon="5.19715">
        <ele>543.65</ele>
        <time>2021-05-20T06:50:42.901Z</time>
      </trkpt>
      <trkpt lat="44.98711" lon="5.19716">
        <ele>543.71</ele>
        <time>2021-05-20T06:50:56.124Z</time>
      </trkpt>
      <trkpt lat="44.98695" lon="5.19729">
        <ele>545.31</ele>
        <time>2021-05-20T06:51:10.543Z</time>
      </trkpt>
      <trkpt lat="44.98685" lon="5.1975">
        <ele>545.73</ele>
        <time>2021-05-20T06:51:24.701Z</time>
      </trkpt>
      <trkpt lat="44.98676" lon="5.19774">
        <ele>548.15</ele>
        <time>2021-05-20T06:51:41.698Z</time>
      </trkpt>
      <trkpt lat="44.98658" lon="5.19783">
        <ele>549.83</ele>
        <time>2021-05-20T06:51:55.135Z</time>
      </trkpt>
      <trkpt lat="44.98643" lon="5.19798">
        <ele>550.56</ele>
        <time>2021-05-20T06:52:09.803Z</time>
      </trkpt>
      <trkpt lat="44.98627" lon="5.19812">
        <ele>551.87</ele>
        <time>2021-05-20T06:52:23.761Z</time>
      </trkpt>
      <trkpt lat="44.98612" lon="5.19827">
        <ele>553.7</ele>
        <time>2021-05-20T06:52:40.441Z</time>
      </trkpt>
      <trkpt lat="44.98606" lon="5.19851">
        <ele>554.48</ele>
        <time>2021-05-20T06:52:58.676Z</time>
      </trkpt>
      <trkpt lat="44.98592" lon="5.19869">
        <ele>558.21</ele>
        <time>2021-05-20T06:53:14.934Z</time>
      </trkpt>
      <trkpt lat="44.98583" lon="5.19893">
        <ele>561.56</ele>
        <time>2021-05-20T06:53:38.805Z</time>
      </trkpt>
      <trkpt lat="44.98575" lon="5.19916">
        <ele>565.25</ele>
        <time>2021-05-20T06:53:58.522Z</time>
      </trkpt>
      <trkpt lat="44.98568" lon="5.1994">
        <ele>570.24</ele>
        <time>2021-05-20T06:54:18.699Z</time>
      </trkpt>
      <trkpt lat="44.98577" lon="5.19962">
        <ele>571.43</ele>
        <time>2021-05-20T06:54:35.503Z</time>
      </trkpt>
      <trkpt lat="44.98594" lon="5.19972">
        <ele>574.52</ele>
        <time>2021-05-20T06:54:51.543Z</time>
      </trkpt>
      <trkpt lat="44.98612" lon="5.19981">
        <ele>579.01</ele>
        <time>2021-05-20T06:55:10.438Z</time>
      </trkpt>
      <trkpt lat="44.98628" lon="5.19995">
        <ele>577.85</ele>
        <time>2021-05-20T06:55:28.000Z</time>
      </trkpt>
      <trkpt lat="44.98644" lon="5.20009">
        <ele>580.79</ele>
        <time>2021-05-20T06:55:48.800Z</time>
      </trkpt>
      <trkpt lat="44.98661" lon="5.2002">
        <ele>582.18</ele>
        <time>2021-05-20T06:56:03.475Z</time>
      </trkpt>
      <trkpt lat="44.98677" lon="5.20034">
        <ele>583.6</ele>
        <time>2021-05-20T06:56:19.614Z</time>
      </trkpt>
      <trkpt lat="44.98687" lon="5.20055">
        <ele>585.95</ele>
        <time>2021-05-20T06:56:42.706Z</time>
      </trkpt>
      <trkpt lat="44.98694" lon="5.2008">
        <ele>589.48</ele>
        <time>2021-05-20T06:57:07.400Z</time>
      </trkpt>
      <trkpt lat="44.98693" lon="5.20107">
        <ele>590.15</ele>
        <time>2021-05-20T06:57:21.782Z</time>
      </trkpt>
      <trkpt lat="44.98687" lon="5.20131">
        <ele>593.87</ele>
        <time>2021-05-20T06:57:47.826Z</time>
      </trkpt>
      <trkpt lat="44.98672" lon="5.20147">
        <ele>590.99</ele>
        <time>2021-05-20T06:58:25.700Z</time>
      </trkpt>
      <trkpt lat="44.98658" lon="5.20163">
        <ele>599.81</ele>
        <time>2021-05-20T06:58:45.820Z</time>
      </trkpt>
      <trkpt lat="44.9864" lon="5.2017">
        <ele>600.66</ele>
        <time>2021-05-20T06:59:02.124Z</time>
      </trkpt>
      <trkpt lat="44.98625" lon="5.20184">
        <ele>602.28</ele>
        <time>2021-05-20T06:59:21.000Z</time>
      </trkpt>
      <trkpt lat="44.9861" lon="5.20199">
        <ele>603.88</ele>
        <time>2021-05-20T06:59:52.920Z</time>
      </trkpt>
      <trkpt lat="44.98594" lon="5.20212">
        <ele>605.73</ele>
        <time>2021-05-20T07:00:19.496Z</time>
      </trkpt>
      <trkpt lat="44.98582" lon="5.20231">
        <ele>605.59</ele>
        <time>2021-05-20T07:00:32.494Z</time>
      </trkpt>
      <trkpt lat="44.9857" lon="5.20251">
        <ele>607.73</ele>
        <time>2021-05-20T07:00:53.884Z</time>
      </trkpt>
      <trkpt lat="44.98561" lon="5.20274">
        <ele>608.8</ele>
        <time>2021-05-20T07:01:09.766Z</time>
      </trkpt>
      <trkpt lat="44.98551" lon="5.20296">
        <ele>611.19</ele>
        <time>2021-05-20T07:01:27.244Z</time>
      </trkpt>
      <trkpt lat="44.9854" lon="5.20317">
        <ele>612.82</ele>
        <time>2021-05-20T07:02:03.262Z</time>
      </trkpt>
      <trkpt lat="44.98531" lon="5.20339">
        <ele>614.64</ele>
        <time>2021-05-20T07:02:20.499Z</time>
      </trkpt>
      <trkpt lat="44.98519" lon="5.20359">
        <ele>618.36</ele>
        <time>2021-05-20T07:02:41.276Z</time>
      </trkpt>
      <trkpt lat="44.98509" lon="5.20381">
        <ele>620.72</ele>
        <time>2021-05-20T07:03:00.900Z</time>
      </trkpt>
      <trkpt lat="44.98501" lon="5.20404">
        <ele>621.76</ele>
        <time>2021-05-20T07:03:22.338Z</time>
      </trkpt>
      <trkpt lat="44.9849" lon="5.20425">
        <ele>626.47</ele>
        <time>2021-05-20T07:03:41.000Z</time>
      </trkpt>
      <trkpt lat="44.98477" lon="5.20446">
        <ele>628.55</ele>
        <time>2021-05-20T07:04:10.874Z</time>
      </trkpt>
      <trkpt lat="44.98463" lon="5.20463">
        <ele>631.26</ele>
        <time>2021-05-20T07:04:26.727Z</time>
      </trkpt>
      <trkpt lat="44.98451" lon="5.20482">
        <ele>634.09</ele>
        <time>2021-05-20T07:04:44.971Z</time>
      </trkpt>
      <trkpt lat="44.98438" lon="5.20501">
        <ele>636.58</ele>
        <time>2021-05-20T07:05:02.603Z</time>
      </trkpt>
      <trkpt lat="44.9843" lon="5.20524">
        <ele>639.4</ele>
        <time>2021-05-20T07:06:07.000Z</time>
      </trkpt>
      <trkpt lat="44.98419" lon="5.20545">
        <ele>643.1</ele>
        <time>2021-05-20T07:06:42.410Z</time>
      </trkpt>
      <trkpt lat="44.98404" lon="5.20559">
        <ele>645</ele>
        <time>2021-05-20T07:07:01.302Z</time>
      </trkpt>
      <trkpt lat="44.98388" lon="5.20574">
        <ele>648.2</ele>
        <time>2021-05-20T07:07:27.878Z</time>
      </trkpt>
      <trkpt lat="44.98376" lon="5.20594">
        <ele>652.33</ele>
        <time>2021-05-20T07:07:47.678Z</time>
      </trkpt>
      <trkpt lat="44.98366" lon="5.20616">
        <ele>655.09</ele>
        <time>2021-05-20T07:08:07.816Z</time>
      </trkpt>
      <trkpt lat="44.98354" lon="5.20635">
        <ele>658.94</ele>
        <time>2021-05-20T07:08:27.345Z</time>
      </trkpt>
      <trkpt lat="44.98339" lon="5.20649">
        <ele>662.42</ele>
        <time>2021-05-20T07:08:46.669Z</time>
      </trkpt>
      <trkpt lat="44.98324" lon="5.20664">
        <ele>665.15</ele>
        <time>2021-05-20T07:09:07.886Z</time>
      </trkpt>
      <trkpt lat="44.98312" lon="5.20684">
        <ele>667.66</ele>
        <time>2021-05-20T07:09:25.000Z</time>
      </trkpt>
      <trkpt lat="44.98299" lon="5.20702">
        <ele>671.16</ele>
        <time>2021-05-20T07:09:46.820Z</time>
      </trkpt>
      <trkpt lat="44.98288" lon="5.20722">
        <ele>674.04</ele>
        <time>2021-05-20T07:10:06.882Z</time>
      </trkpt>
      <trkpt lat="44.98274" lon="5.20741">
        <ele>678.29</ele>
        <time>2021-05-20T07:10:26.920Z</time>
      </trkpt>
      <trkpt lat="44.98262" lon="5.2076">
        <ele>680.33</ele>
        <time>2021-05-20T07:10:45.374Z</time>
      </trkpt>
      <trkpt lat="44.98251" lon="5.2078">
        <ele>683.19</ele>
        <time>2021-05-20T07:11:04.000Z</time>
      </trkpt>
      <trkpt lat="44.98243" lon="5.20804">
        <ele>685.79</ele>
        <time>2021-05-20T07:11:22.627Z</time>
      </trkpt>
      <trkpt lat="44.98236" lon="5.20828">
        <ele>690.73</ele>
        <time>2021-05-20T07:11:42.206Z</time>
      </trkpt>
      <trkpt lat="44.9823" lon="5.20852">
        <ele>693.78</ele>
        <time>2021-05-20T07:12:03.818Z</time>
      </trkpt>
      <trkpt lat="44.98215" lon="5.20866">
        <ele>698.95</ele>
        <time>2021-05-20T07:12:29.230Z</time>
      </trkpt>
      <trkpt lat="44.98199" lon="5.20877">
        <ele>702.49</ele>
        <time>2021-05-20T07:12:50.606Z</time>
      </trkpt>
      <trkpt lat="44.98181" lon="5.20883">
        <ele>705.03</ele>
        <time>2021-05-20T07:13:07.000Z</time>
      </trkpt>
      <trkpt lat="44.98163" lon="5.20887">
        <ele>710.27</ele>
        <time>2021-05-20T07:13:32.000Z</time>
      </trkpt>
      <trkpt lat="44.98145" lon="5.20894">
        <ele>713.54</ele>
        <time>2021-05-20T07:14:10.807Z</time>
      </trkpt>
      <trkpt lat="44.98127" lon="5.20893">
        <ele>718.15</ele>
        <time>2021-05-20T07:14:31.721Z</time>
      </trkpt>
      <trkpt lat="44.98109" lon="5.20891">
        <ele>720.65</ele>
        <time>2021-05-20T07:14:48.803Z</time>
      </trkpt>
      <trkpt lat="44.98091" lon="5.20898">
        <ele>724.5</ele>
        <time>2021-05-20T07:15:06.470Z</time>
      </trkpt>
      <trkpt lat="44.98074" lon="5.2091">
        <ele>727.72</ele>
        <time>2021-05-20T07:15:26.802Z</time>
      </trkpt>
      <trkpt lat="44.9806" lon="5.20926">
        <ele>731.9</ele>
        <time>2021-05-20T07:15:45.686Z</time>
      </trkpt>
      <trkpt lat="44.98068" lon="5.20949">
        <ele>739.6</ele>
        <time>2021-05-20T07:16:32.815Z</time>
      </trkpt>
      <trkpt lat="44.98082" lon="5.20965">
        <ele>746.07</ele>
        <time>2021-05-20T07:17:07.806Z</time>
      </trkpt>
      <trkpt lat="44.98098" lon="5.20977">
        <ele>752.26</ele>
        <time>2021-05-20T07:17:36.633Z</time>
      </trkpt>
      <trkpt lat="44.98115" lon="5.20989">
        <ele>757.51</ele>
        <time>2021-05-20T07:18:08.633Z</time>
      </trkpt>
      <trkpt lat="44.98133" lon="5.20992">
        <ele>760.93</ele>
        <time>2021-05-20T07:18:26.331Z</time>
      </trkpt>
      <trkpt lat="44.9815" lon="5.21">
        <ele>765.5</ele>
        <time>2021-05-20T07:18:55.000Z</time>
      </trkpt>
      <trkpt lat="44.98168" lon="5.21007">
        <ele>769.46</ele>
        <time>2021-05-20T07:19:20.863Z</time>
      </trkpt>
      <trkpt lat="44.98186" lon="5.21014">
        <ele>774.61</ele>
        <time>2021-05-20T07:19:42.865Z</time>
      </trkpt>
      <trkpt lat="44.98204" lon="5.21012">
        <ele>779.61</ele>
        <time>2021-05-20T07:20:06.000Z</time>
      </trkpt>
      <trkpt lat="44.98222" lon="5.21015">
        <ele>784.75</ele>
        <time>2021-05-20T07:20:37.000Z</time>
      </trkpt>
      <trkpt lat="44.9824" lon="5.21022">
        <ele>789.19</ele>
        <time>2021-05-20T07:21:17.383Z</time>
      </trkpt>
      <trkpt lat="44.9825" lon="5.21044">
        <ele>791.87</ele>
        <time>2021-05-20T07:23:54.740Z</time>
      </trkpt>
      <trkpt lat="44.98262" lon="5.21063">
        <ele>794.04</ele>
        <time>2021-05-20T07:24:10.322Z</time>
      </trkpt>
      <trkpt lat="44.98272" lon="5.21085">
        <ele>796.3</ele>
        <time>2021-05-20T07:24:25.574Z</time>
      </trkpt>
      <trkpt lat="44.98284" lon="5.21105">
        <ele>797.24</ele>
        <time>2021-05-20T07:24:42.712Z</time>
      </trkpt>
      <trkpt lat="44.98303" lon="5.21109">
        <ele>799.93</ele>
        <time>2021-05-20T07:25:05.649Z</time>
      </trkpt>
      <trkpt lat="44.98321" lon="5.21107">
        <ele>802.93</ele>
        <time>2021-05-20T07:25:25.467Z</time>
      </trkpt>
      <trkpt lat="44.9834" lon="5.21108">
        <ele>808.47</ele>
        <time>2021-05-20T07:25:50.000Z</time>
      </trkpt>
      <trkpt lat="44.98358" lon="5.211">
        <ele>812.43</ele>
        <time>2021-05-20T07:26:38.268Z</time>
      </trkpt>
      <trkpt lat="44.98374" lon="5.21088">
        <ele>816.57</ele>
        <time>2021-05-20T07:27:00.365Z</time>
      </trkpt>
      <trkpt lat="44.98391" lon="5.21079">
        <ele>819.52</ele>
        <time>2021-05-20T07:27:18.405Z</time>
      </trkpt>
      <trkpt lat="44.98409" lon="5.21069">
        <ele>823.84</ele>
        <time>2021-05-20T07:27:42.000Z</time>
      </trkpt>
      <trkpt lat="44.98427" lon="5.21063">
        <ele>827.04</ele>
        <time>2021-05-20T07:28:05.000Z</time>
      </trkpt>
      <trkpt lat="44.98443" lon="5.21052">
        <ele>831.07</ele>
        <time>2021-05-20T07:28:31.691Z</time>
      </trkpt>
      <trkpt lat="44.98458" lon="5.21038">
        <ele>838.08</ele>
        <time>2021-05-20T07:29:09.326Z</time>
      </trkpt>
      <trkpt lat="44.98463" lon="5.21013">
        <ele>847.51</ele>
        <time>2021-05-20T07:29:48.331Z</time>
      </trkpt>
      <trkpt lat="44.98482" lon="5.21013">
        <ele>849.58</ele>
        <time>2021-05-20T07:32:33.000Z</time>
      </trkpt>
      <trkpt lat="44.985" lon="5.21016">
        <ele>854.85</ele>
        <time>2021-05-20T07:33:02.307Z</time>
      </trkpt>
      <trkpt lat="44.98518" lon="5.21013">
        <ele>860.09</ele>
        <time>2021-05-20T07:33:43.708Z</time>
      </trkpt>
      <trkpt lat="44.98537" lon="5.21013">
        <ele>865.35</ele>
        <time>2021-05-20T07:34:07.446Z</time>
      </trkpt>
      <trkpt lat="44.98541" lon="5.21038">
        <ele>873.38</ele>
        <time>2021-05-20T07:34:40.495Z</time>
      </trkpt>
      <trkpt lat="44.9853" lon="5.21059">
        <ele>880</ele>
        <time>2021-05-20T07:35:12.490Z</time>
      </trkpt>
      <trkpt lat="44.98522" lon="5.21083">
        <ele>886.4</ele>
        <time>2021-05-20T07:35:47.526Z</time>
      </trkpt>
      <trkpt lat="44.98516" lon="5.21107">
        <ele>891.32</ele>
        <time>2021-05-20T07:36:08.312Z</time>
      </trkpt>
      <trkpt lat="44.98505" lon="5.21128">
        <ele>895.46</ele>
        <time>2021-05-20T07:36:35.447Z</time>
      </trkpt>
      <trkpt lat="44.98497" lon="5.21152">
        <ele>901.77</ele>
        <time>2021-05-20T07:37:11.000Z</time>
      </trkpt>
      <trkpt lat="44.98485" lon="5.21171">
        <ele>910.07</ele>
        <time>2021-05-20T07:37:47.433Z</time>
      </trkpt>
      <trkpt lat="44.98482" lon="5.21197">
        <ele>918.64</ele>
        <time>2021-05-20T07:38:34.000Z</time>
      </trkpt>
      <trkpt lat="44.98476" lon="5.21222">
        <ele>924.68</ele>
        <time>2021-05-20T07:39:35.170Z</time>
      </trkpt>
      <trkpt lat="44.98466" lon="5.21243">
        <ele>928.82</ele>
        <time>2021-05-20T07:39:57.328Z</time>
      </trkpt>
      <trkpt lat="44.98453" lon="5.21261">
        <ele>932.03</ele>
        <time>2021-05-20T07:40:17.666Z</time>
      </trkpt>
      <trkpt lat="44.98436" lon="5.21273">
        <ele>933.58</ele>
        <time>2021-05-20T07:40:34.724Z</time>
      </trkpt>
      <trkpt lat="44.98424" lon="5.21292">
        <ele>936.66</ele>
        <time>2021-05-20T07:40:57.485Z</time>
      </trkpt>
      <trkpt lat="44.9841" lon="5.2131">
        <ele>940.08</ele>
        <time>2021-05-20T07:41:13.999Z</time>
      </trkpt>
      <trkpt lat="44.98398" lon="5.21328">
        <ele>944.34</ele>
        <time>2021-05-20T07:41:43.087Z</time>
      </trkpt>
      <trkpt lat="44.98384" lon="5.21344">
        <ele>948.94</ele>
        <time>2021-05-20T07:42:11.924Z</time>
      </trkpt>
      <trkpt lat="44.9837" lon="5.21361">
        <ele>953.07</ele>
        <time>2021-05-20T07:42:33.999Z</time>
      </trkpt>
      <trkpt lat="44.98355" lon="5.21377">
        <ele>958.56</ele>
        <time>2021-05-20T07:43:01.868Z</time>
      </trkpt>
      <trkpt lat="44.98341" lon="5.21394">
        <ele>962.77</ele>
        <time>2021-05-20T07:43:29.646Z</time>
      </trkpt>
      <trkpt lat="44.9833" lon="5.21414">
        <ele>968.84</ele>
        <time>2021-05-20T07:45:14.999Z</time>
      </trkpt>
      <trkpt lat="44.98315" lon="5.21429">
        <ele>967.98</ele>
        <time>2021-05-20T07:45:28.731Z</time>
      </trkpt>
      <trkpt lat="44.98296" lon="5.21429">
        <ele>969.03</ele>
        <time>2021-05-20T07:46:09.999Z</time>
      </trkpt>
      <trkpt lat="44.98288" lon="5.21453">
        <ele>971.26</ele>
        <time>2021-05-20T07:47:31.999Z</time>
      </trkpt>
      <trkpt lat="44.98279" lon="5.21475">
        <ele>981.02</ele>
        <time>2021-05-20T07:48:24.999Z</time>
      </trkpt>
      <trkpt lat="44.98266" lon="5.21493">
        <ele>986.86</ele>
        <time>2021-05-20T07:48:53.347Z</time>
      </trkpt>
      <trkpt lat="44.98251" lon="5.21506">
        <ele>994.35</ele>
        <time>2021-05-20T07:49:36.808Z</time>
      </trkpt>
      <trkpt lat="44.98233" lon="5.21514">
        <ele>999.12</ele>
        <time>2021-05-20T07:50:07.331Z</time>
      </trkpt>
      <trkpt lat="44.98217" lon="5.21529">
        <ele>1005.94</ele>
        <time>2021-05-20T07:50:46.406Z</time>
      </trkpt>
      <trkpt lat="44.98206" lon="5.21549">
        <ele>1011.64</ele>
        <time>2021-05-20T07:51:20.430Z</time>
      </trkpt>
      <trkpt lat="44.98199" lon="5.21573">
        <ele>1020.1</ele>
        <time>2021-05-20T07:52:09.922Z</time>
      </trkpt>
      <trkpt lat="44.98193" lon="5.21597">
        <ele>1024.5</ele>
        <time>2021-05-20T07:52:27.461Z</time>
      </trkpt>
      <trkpt lat="44.9819" lon="5.21623">
        <ele>1026.54</ele>
        <time>2021-05-20T07:52:48.654Z</time>
      </trkpt>
      <trkpt lat="44.98182" lon="5.21646">
        <ele>1029.93</ele>
        <time>2021-05-20T07:53:16.999Z</time>
      </trkpt>
      <trkpt lat="44.9818" lon="5.21672">
        <ele>1033.19</ele>
        <time>2021-05-20T07:53:48.630Z</time>
      </trkpt>
      <trkpt lat="44.98185" lon="5.21697">
        <ele>1036.49</ele>
        <time>2021-05-20T07:54:10.825Z</time>
      </trkpt>
      <trkpt lat="44.98183" lon="5.21723">
        <ele>1044.9</ele>
        <time>2021-05-20T07:54:56.999Z</time>
      </trkpt>
      <trkpt lat="44.98179" lon="5.21748">
        <ele>1053.65</ele>
        <time>2021-05-20T07:55:33.605Z</time>
      </trkpt>
      <trkpt lat="44.98177" lon="5.21774">
        <ele>1062.01</ele>
        <time>2021-05-20T07:56:17.412Z</time>
      </trkpt>
      <trkpt lat="44.98171" lon="5.21798">
        <ele>1070.19</ele>
        <time>2021-05-20T07:57:09.346Z</time>
      </trkpt>
      <trkpt lat="44.98157" lon="5.21813">
        <ele>1085.37</ele>
        <time>2021-05-20T07:58:26.583Z</time>
      </trkpt>
      <trkpt lat="44.98155" lon="5.21839">
        <ele>1094.09</ele>
        <time>2021-05-20T07:59:13.454Z</time>
      </trkpt>
      <trkpt lat="44.98148" lon="5.21862">
        <ele>1107.03</ele>
        <time>2021-05-20T08:00:07.527Z</time>
      </trkpt>
      <trkpt lat="44.98146" lon="5.21887">
        <ele>1119.87</ele>
        <time>2021-05-20T08:01:11.571Z</time>
      </trkpt>
      <trkpt lat="44.98151" lon="5.21912">
        <ele>1125.89</ele>
        <time>2021-05-20T08:01:42.999Z</time>
      </trkpt>
      <trkpt lat="44.98156" lon="5.21938">
        <ele>1134.24</ele>
        <time>2021-05-20T08:02:16.999Z</time>
      </trkpt>
      <trkpt lat="44.98158" lon="5.21963">
        <ele>1141.74</ele>
        <time>2021-05-20T08:03:00.701Z</time>
      </trkpt>
      <trkpt lat="44.98156" lon="5.21989">
        <ele>1160.01</ele>
        <time>2021-05-20T08:04:38.445Z</time>
      </trkpt>
      <trkpt lat="44.98153" lon="5.22015">
        <ele>1172.09</ele>
        <time>2021-05-20T08:05:59.999Z</time>
      </trkpt>
      <trkpt lat="44.98136" lon="5.22006">
        <ele>1180.38</ele>
        <time>2021-05-20T08:07:36.999Z</time>
      </trkpt>
      <trkpt lat="44.98148" lon="5.22025">
        <ele>1177.65</ele>
        <time>2021-05-20T08:11:11.805Z</time>
      </trkpt>
      <trkpt lat="44.98163" lon="5.2204">
        <ele>1174.27</ele>
        <time>2021-05-20T08:11:42.685Z</time>
      </trkpt>
      <trkpt lat="44.98179" lon="5.22054">
        <ele>1171.93</ele>
        <time>2021-05-20T08:12:00.999Z</time>
      </trkpt>
      <trkpt lat="44.98194" lon="5.2207">
        <ele>1168.75</ele>
        <time>2021-05-20T08:12:38.487Z</time>
      </trkpt>
      <trkpt lat="44.98209" lon="5.22084">
        <ele>1167.95</ele>
        <time>2021-05-20T08:13:15.423Z</time>
      </trkpt>
      <trkpt lat="44.98226" lon="5.22094">
        <ele>1168.09</ele>
        <time>2021-05-20T08:13:44.551Z</time>
      </trkpt>
      <trkpt lat="44.9824" lon="5.2211">
        <ele>1166.96</ele>
        <time>2021-05-20T08:14:22.999Z</time>
      </trkpt>
      <trkpt lat="44.98257" lon="5.22119">
        <ele>1167.13</ele>
        <time>2021-05-20T08:15:14.999Z</time>
      </trkpt>
      <trkpt lat="44.98268" lon="5.22139">
        <ele>1162.11</ele>
        <time>2021-05-20T08:15:48.821Z</time>
      </trkpt>
      <trkpt lat="44.9828" lon="5.2216">
        <ele>1161.23</ele>
        <time>2021-05-20T08:16:10.646Z</time>
      </trkpt>
      <trkpt lat="44.9829" lon="5.22181">
        <ele>1158.82</ele>
        <time>2021-05-20T08:16:58.373Z</time>
      </trkpt>
      <trkpt lat="44.98306" lon="5.22195">
        <ele>1159.37</ele>
        <time>2021-05-20T08:17:09.651Z</time>
      </trkpt>
      <trkpt lat="44.98323" lon="5.22203">
        <ele>1167.37</ele>
        <time>2021-05-20T08:18:06.999Z</time>
      </trkpt>
      <trkpt lat="44.98341" lon="5.22207">
        <ele>1175.24</ele>
        <time>2021-05-20T08:19:01.910Z</time>
      </trkpt>
      <trkpt lat="44.98359" lon="5.22213">
        <ele>1182.58</ele>
        <time>2021-05-20T08:19:37.571Z</time>
      </trkpt>
      <trkpt lat="44.98377" lon="5.22217">
        <ele>1192.23</ele>
        <time>2021-05-20T08:20:29.684Z</time>
      </trkpt>
      <trkpt lat="44.98392" lon="5.2223">
        <ele>1196.18</ele>
        <time>2021-05-20T08:25:32.289Z</time>
      </trkpt>
      <trkpt lat="44.98401" lon="5.22253">
        <ele>1198.21</ele>
        <time>2021-05-20T08:26:10.999Z</time>
      </trkpt>
      <trkpt lat="44.98414" lon="5.22272">
        <ele>1199.42</ele>
        <time>2021-05-20T08:26:37.999Z</time>
      </trkpt>
      <trkpt lat="44.98427" lon="5.2229">
        <ele>1202.81</ele>
        <time>2021-05-20T08:27:12.999Z</time>
      </trkpt>
      <trkpt lat="44.9844" lon="5.2231">
        <ele>1204.52</ele>
        <time>2021-05-20T08:27:35.415Z</time>
      </trkpt>
      <trkpt lat="44.98457" lon="5.22319">
        <ele>1207.82</ele>
        <time>2021-05-20T08:28:01.611Z</time>
      </trkpt>
      <trkpt lat="44.98475" lon="5.22327">
        <ele>1209.33</ele>
        <time>2021-05-20T08:28:30.726Z</time>
      </trkpt>
      <trkpt lat="44.9849" lon="5.22341">
        <ele>1212.04</ele>
        <time>2021-05-20T08:29:04.711Z</time>
      </trkpt>
      <trkpt lat="44.98506" lon="5.22354">
        <ele>1210.39</ele>
        <time>2021-05-20T08:29:41.727Z</time>
      </trkpt>
      <trkpt lat="44.98523" lon="5.22362">
        <ele>1207.57</ele>
        <time>2021-05-20T08:29:52.485Z</time>
      </trkpt>
      <trkpt lat="44.9854" lon="5.22351">
        <ele>1206.34</ele>
        <time>2021-05-20T08:30:11.443Z</time>
      </trkpt>
      <trkpt lat="44.98538" lon="5.22377">
        <ele>1204.12</ele>
        <time>2021-05-20T08:30:58.629Z</time>
      </trkpt>
      <trkpt lat="44.9854" lon="5.22402">
        <ele>1203.08</ele>
        <time>2021-05-20T08:31:28.999Z</time>
      </trkpt>
      <trkpt lat="44.98551" lon="5.22423">
        <ele>1203.22</ele>
        <time>2021-05-20T08:32:18.999Z</time>
      </trkpt>
      <trkpt lat="44.98561" lon="5.22445">
        <ele>1205.26</ele>
        <time>2021-05-20T08:32:51.511Z</time>
      </trkpt>
      <trkpt lat="44.9858" lon="5.22447">
        <ele>1208.95</ele>
        <time>2021-05-20T08:33:40.999Z</time>
      </trkpt>
      <trkpt lat="44.98595" lon="5.22433">
        <ele>1211.31</ele>
        <time>2021-05-20T08:34:10.812Z</time>
      </trkpt>
      <trkpt lat="44.98609" lon="5.22416">
        <ele>1217.32</ele>
        <time>2021-05-20T08:34:45.388Z</time>
      </trkpt>
      <trkpt lat="44.98628" lon="5.22419">
        <ele>1218.86</ele>
        <time>2021-05-20T08:35:01.665Z</time>
      </trkpt>
      <trkpt lat="44.98646" lon="5.22421">
        <ele>1221.55</ele>
        <time>2021-05-20T08:35:22.999Z</time>
      </trkpt>
      <trkpt lat="44.98664" lon="5.2242">
        <ele>1223.27</ele>
        <time>2021-05-20T08:35:42.999Z</time>
      </trkpt>
      <trkpt lat="44.98683" lon="5.22416">
        <ele>1222.78</ele>
        <time>2021-05-20T08:36:03.088Z</time>
      </trkpt>
      <trkpt lat="44.987" lon="5.22408">
        <ele>1221.84</ele>
        <time>2021-05-20T08:36:21.724Z</time>
      </trkpt>
      <trkpt lat="44.98719" lon="5.22405">
        <ele>1221.39</ele>
        <time>2021-05-20T08:36:59.915Z</time>
      </trkpt>
      <trkpt lat="44.98737" lon="5.22413">
        <ele>1221.46</ele>
        <time>2021-05-20T08:37:13.728Z</time>
      </trkpt>
      <trkpt lat="44.98754" lon="5.2242">
        <ele>1224.8</ele>
        <time>2021-05-20T08:37:39.867Z</time>
      </trkpt>
      <trkpt lat="44.98768" lon="5.22437">
        <ele>1219.57</ele>
        <time>2021-05-20T08:37:56.999Z</time>
      </trkpt>
      <trkpt lat="44.98769" lon="5.22463">
        <ele>1225.23</ele>
        <time>2021-05-20T08:38:16.524Z</time>
      </trkpt>
      <trkpt lat="44.9876" lon="5.2244">
        <ele>1226.04</ele>
        <time>2021-05-20T08:39:47.673Z</time>
      </trkpt>
      <trkpt lat="44.98743" lon="5.22429">
        <ele>1224.43</ele>
        <time>2021-05-20T08:40:16.311Z</time>
      </trkpt>
      <trkpt lat="44.98738" lon="5.22453">
        <ele>1221.41</ele>
        <time>2021-05-20T08:41:24.909Z</time>
      </trkpt>
      <trkpt lat="44.98738" lon="5.2248">
        <ele>1220.36</ele>
        <time>2021-05-20T08:42:22.885Z</time>
      </trkpt>
      <trkpt lat="44.98745" lon="5.22503">
        <ele>1217.97</ele>
        <time>2021-05-20T08:42:43.582Z</time>
      </trkpt>
      <trkpt lat="44.98759" lon="5.2252">
        <ele>1217.73</ele>
        <time>2021-05-20T08:43:09.831Z</time>
      </trkpt>
      <trkpt lat="44.98778" lon="5.22518">
        <ele>1220.41</ele>
        <time>2021-05-20T08:44:02.999Z</time>
      </trkpt>
      <trkpt lat="44.98796" lon="5.22526">
        <ele>1221.07</ele>
        <time>2021-05-20T08:44:15.727Z</time>
      </trkpt>
      <trkpt lat="44.98814" lon="5.22522">
        <ele>1223.53</ele>
        <time>2021-05-20T08:44:41.999Z</time>
      </trkpt>
      <trkpt lat="44.98829" lon="5.22506">
        <ele>1226.39</ele>
        <time>2021-05-20T08:44:59.999Z</time>
      </trkpt>
      <trkpt lat="44.98833" lon="5.22481">
        <ele>1226.8</ele>
        <time>2021-05-20T08:45:25.906Z</time>
      </trkpt>
      <trkpt lat="44.98826" lon="5.22456">
        <ele>1229.52</ele>
        <time>2021-05-20T08:45:57.999Z</time>
      </trkpt>
      <trkpt lat="44.98833" lon="5.22481">
        <ele>1228.7</ele>
        <time>2021-05-20T08:47:55.350Z</time>
      </trkpt>
      <trkpt lat="44.98851" lon="5.22488">
        <ele>1227.26</ele>
        <time>2021-05-20T08:48:12.628Z</time>
      </trkpt>
      <trkpt lat="44.98868" lon="5.22498">
        <ele>1223.54</ele>
        <time>2021-05-20T08:48:31.606Z</time>
      </trkpt>
      <trkpt lat="44.98884" lon="5.22511">
        <ele>1225.08</ele>
        <time>2021-05-20T08:48:49.187Z</time>
      </trkpt>
      <trkpt lat="44.98903" lon="5.22512">
        <ele>1224.91</ele>
        <time>2021-05-20T08:49:27.852Z</time>
      </trkpt>
      <trkpt lat="44.9892" lon="5.22523">
        <ele>1221.57</ele>
        <time>2021-05-20T08:49:43.563Z</time>
      </trkpt>
      <trkpt lat="44.98937" lon="5.22531">
        <ele>1218.12</ele>
        <time>2021-05-20T08:50:24.810Z</time>
      </trkpt>
      <trkpt lat="44.98943" lon="5.22556">
        <ele>1217.19</ele>
        <time>2021-05-20T08:50:39.999Z</time>
      </trkpt>
      <trkpt lat="44.98952" lon="5.22578">
        <ele>1214.25</ele>
        <time>2021-05-20T08:51:03.801Z</time>
      </trkpt>
      <trkpt lat="44.98969" lon="5.22583">
        <ele>1207.51</ele>
        <time>2021-05-20T08:51:50.999Z</time>
      </trkpt>
      <trkpt lat="44.98981" lon="5.22604">
        <ele>1204.92</ele>
        <time>2021-05-20T08:52:16.999Z</time>
      </trkpt>
      <trkpt lat="44.98998" lon="5.22614">
        <ele>1201.75</ele>
        <time>2021-05-20T08:52:53.630Z</time>
      </trkpt>
      <trkpt lat="44.99016" lon="5.22609">
        <ele>1198.27</ele>
        <time>2021-05-20T08:53:15.732Z</time>
      </trkpt>
      <trkpt lat="44.99032" lon="5.22621">
        <ele>1192.55</ele>
        <time>2021-05-20T08:53:55.330Z</time>
      </trkpt>
      <trkpt lat="44.9905" lon="5.22626">
        <ele>1190.95</ele>
        <time>2021-05-20T08:54:11.569Z</time>
      </trkpt>
      <trkpt lat="44.99068" lon="5.22632">
        <ele>1190.36</ele>
        <time>2021-05-20T08:54:39.999Z</time>
      </trkpt>
      <trkpt lat="44.99085" lon="5.22644">
        <ele>1193.97</ele>
        <time>2021-05-20T08:55:11.369Z</time>
      </trkpt>
      <trkpt lat="44.991" lon="5.22631">
        <ele>1199.31</ele>
        <time>2021-05-20T08:56:01.999Z</time>
      </trkpt>
      <trkpt lat="44.9911" lon="5.2261">
        <ele>1205.82</ele>
        <time>2021-05-20T08:57:04.129Z</time>
      </trkpt>
      <trkpt lat="44.99128" lon="5.22604">
        <ele>1213.23</ele>
        <time>2021-05-20T08:58:03.999Z</time>
      </trkpt>
      <trkpt lat="44.99145" lon="5.22613">
        <ele>1219.49</ele>
        <time>2021-05-20T08:58:37.464Z</time>
      </trkpt>
      <trkpt lat="44.99163" lon="5.22606">
        <ele>1227.36</ele>
        <time>2021-05-20T08:59:24.942Z</time>
      </trkpt>
      <trkpt lat="44.99177" lon="5.22589">
        <ele>1232.57</ele>
        <time>2021-05-20T09:00:13.999Z</time>
      </trkpt>
      <trkpt lat="44.99185" lon="5.22566">
        <ele>1235.42</ele>
        <time>2021-05-20T09:00:46.999Z</time>
      </trkpt>
      <trkpt lat="44.992" lon="5.22581">
        <ele>1235.63</ele>
        <time>2021-05-20T09:03:20.268Z</time>
      </trkpt>
      <trkpt lat="44.99206" lon="5.22605">
        <ele>1232.77</ele>
        <time>2021-05-20T09:03:42.287Z</time>
      </trkpt>
      <trkpt lat="44.99221" lon="5.2262">
        <ele>1233.39</ele>
        <time>2021-05-20T09:04:20.471Z</time>
      </trkpt>
      <trkpt lat="44.99237" lon="5.2263">
        <ele>1235.7</ele>
        <time>2021-05-20T09:04:49.000Z</time>
      </trkpt>
      <trkpt lat="44.99254" lon="5.22643">
        <ele>1236.62</ele>
        <time>2021-05-20T09:05:09.000Z</time>
      </trkpt>
      <trkpt lat="44.99271" lon="5.22633">
        <ele>1241.14</ele>
        <time>2021-05-20T09:05:45.701Z</time>
      </trkpt>
      <trkpt lat="44.99289" lon="5.22627">
        <ele>1244.63</ele>
        <time>2021-05-20T09:06:06.870Z</time>
      </trkpt>
      <trkpt lat="44.99306" lon="5.22638">
        <ele>1244.89</ele>
        <time>2021-05-20T09:06:26.869Z</time>
      </trkpt>
      <trkpt lat="44.99316" lon="5.22659">
        <ele>1242.8</ele>
        <time>2021-05-20T09:06:43.000Z</time>
      </trkpt>
      <trkpt lat="44.99333" lon="5.22672">
        <ele>1239.51</ele>
        <time>2021-05-20T09:07:10.000Z</time>
      </trkpt>
      <trkpt lat="44.99352" lon="5.22678">
        <ele>1238.15</ele>
        <time>2021-05-20T09:07:42.364Z</time>
      </trkpt>
      <trkpt lat="44.99359" lon="5.22655">
        <ele>1244.62</ele>
        <time>2021-05-20T09:08:28.818Z</time>
      </trkpt>
      <trkpt lat="44.99363" lon="5.22631">
        <ele>1249.71</ele>
        <time>2021-05-20T09:09:11.563Z</time>
      </trkpt>
      <trkpt lat="44.99378" lon="5.22616">
        <ele>1253.95</ele>
        <time>2021-05-20T09:09:34.732Z</time>
      </trkpt>
      <trkpt lat="44.99396" lon="5.22606">
        <ele>1257.84</ele>
        <time>2021-05-20T09:09:54.409Z</time>
      </trkpt>
      <trkpt lat="44.99414" lon="5.22606">
        <ele>1262.76</ele>
        <time>2021-05-20T09:10:38.384Z</time>
      </trkpt>
      <trkpt lat="44.99432" lon="5.22607">
        <ele>1266.96</ele>
        <time>2021-05-20T09:11:23.409Z</time>
      </trkpt>
      <trkpt lat="44.9945" lon="5.2261">
        <ele>1268.39</ele>
        <time>2021-05-20T09:11:43.000Z</time>
      </trkpt>
      <trkpt lat="44.99466" lon="5.22624">
        <ele>1268.07</ele>
        <time>2021-05-20T09:12:11.624Z</time>
      </trkpt>
      <trkpt lat="44.99484" lon="5.22621">
        <ele>1271.48</ele>
        <time>2021-05-20T09:12:49.682Z</time>
      </trkpt>
      <trkpt lat="44.99502" lon="5.22623">
        <ele>1278.4</ele>
        <time>2021-05-20T09:13:35.965Z</time>
      </trkpt>
      <trkpt lat="44.99519" lon="5.22611">
        <ele>1289.25</ele>
        <time>2021-05-20T09:14:32.000Z</time>
      </trkpt>
      <trkpt lat="44.99536" lon="5.22603">
        <ele>1293.85</ele>
        <time>2021-05-20T09:15:13.000Z</time>
      </trkpt>
      <trkpt lat="44.99554" lon="5.22607">
        <ele>1296.13</ele>
        <time>2021-05-20T09:15:36.000Z</time>
      </trkpt>
      <trkpt lat="44.99568" lon="5.22624">
        <ele>1297.19</ele>
        <time>2021-05-20T09:17:27.822Z</time>
      </trkpt>
      <trkpt lat="44.99576" lon="5.22647">
        <ele>1294.53</ele>
        <time>2021-05-20T09:17:56.819Z</time>
      </trkpt>
      <trkpt lat="44.99593" lon="5.22653">
        <ele>1294.73</ele>
        <time>2021-05-20T09:18:23.746Z</time>
      </trkpt>
      <trkpt lat="44.99611" lon="5.22648">
        <ele>1296.72</ele>
        <time>2021-05-20T09:18:53.000Z</time>
      </trkpt>
      <trkpt lat="44.99629" lon="5.2264">
        <ele>1299.78</ele>
        <time>2021-05-20T09:19:23.464Z</time>
      </trkpt>
      <trkpt lat="44.99647" lon="5.22647">
        <ele>1298.99</ele>
        <time>2021-05-20T09:20:08.510Z</time>
      </trkpt>
      <trkpt lat="44.99662" lon="5.2266">
        <ele>1295.45</ele>
        <time>2021-05-20T09:20:33.488Z</time>
      </trkpt>
      <trkpt lat="44.9968" lon="5.22657">
        <ele>1292.21</ele>
        <time>2021-05-20T09:21:09.244Z</time>
      </trkpt>
      <trkpt lat="44.99698" lon="5.22648">
        <ele>1291.54</ele>
        <time>2021-05-20T09:21:41.351Z</time>
      </trkpt>
      <trkpt lat="44.99716" lon="5.22641">
        <ele>1292.79</ele>
        <time>2021-05-20T09:22:02.688Z</time>
      </trkpt>
      <trkpt lat="44.99733" lon="5.22651">
        <ele>1290.32</ele>
        <time>2021-05-20T09:22:26.506Z</time>
      </trkpt>
      <trkpt lat="44.99751" lon="5.22653">
        <ele>1289.98</ele>
        <time>2021-05-20T09:23:05.000Z</time>
      </trkpt>
      <trkpt lat="44.99769" lon="5.22648">
        <ele>1290.55</ele>
        <time>2021-05-20T09:23:35.349Z</time>
      </trkpt>
      <trkpt lat="44.99788" lon="5.22649">
        <ele>1290.45</ele>
        <time>2021-05-20T09:23:54.846Z</time>
      </trkpt>
      <trkpt lat="44.99806" lon="5.22651">
        <ele>1292.14</ele>
        <time>2021-05-20T09:24:25.726Z</time>
      </trkpt>
      <trkpt lat="44.99824" lon="5.22647">
        <ele>1291.09</ele>
        <time>2021-05-20T09:24:47.210Z</time>
      </trkpt>
      <trkpt lat="44.99842" lon="5.22654">
        <ele>1291.35</ele>
        <time>2021-05-20T09:25:22.865Z</time>
      </trkpt>
      <trkpt lat="44.99861" lon="5.22657">
        <ele>1289.13</ele>
        <time>2021-05-20T09:26:01.812Z</time>
      </trkpt>
      <trkpt lat="44.99879" lon="5.22663">
        <ele>1288.25</ele>
        <time>2021-05-20T09:26:36.000Z</time>
      </trkpt>
      <trkpt lat="44.99892" lon="5.22646">
        <ele>1288.29</ele>
        <time>2021-05-20T09:27:04.000Z</time>
      </trkpt>
      <trkpt lat="44.9991" lon="5.22652">
        <ele>1288.05</ele>
        <time>2021-05-20T09:28:18.000Z</time>
      </trkpt>
      <trkpt lat="44.99927" lon="5.22663">
        <ele>1285.75</ele>
        <time>2021-05-20T09:28:44.722Z</time>
      </trkpt>
      <trkpt lat="44.99946" lon="5.22665">
        <ele>1282.56</ele>
        <time>2021-05-20T09:29:05.881Z</time>
      </trkpt>
      <trkpt lat="44.99964" lon="5.22664">
        <ele>1280.14</ele>
        <time>2021-05-20T09:29:24.000Z</time>
      </trkpt>
      <trkpt lat="44.99982" lon="5.22668">
        <ele>1279.17</ele>
        <time>2021-05-20T09:29:42.886Z</time>
      </trkpt>
      <trkpt lat="44.99997" lon="5.22683">
        <ele>1277.7</ele>
        <time>2021-05-20T09:30:24.000Z</time>
      </trkpt>
      <trkpt lat="45.00001" lon="5.22655">
        <ele>1274.75</ele>
        <time>2021-05-20T09:31:28.685Z</time>
      </trkpt>
      <trkpt lat="44.99991" lon="5.22634">
        <ele>1262.12</ele>
        <time>2021-05-20T09:31:56.796Z</time>
      </trkpt>
      <trkpt lat="44.99983" lon="5.22608">
        <ele>1253.3</ele>
        <time>2021-05-20T09:32:40.000Z</time>
      </trkpt>
      <trkpt lat="44.99976" lon="5.22585">
        <ele>1247.31</ele>
        <time>2021-05-20T09:33:02.000Z</time>
      </trkpt>
      <trkpt lat="44.99967" lon="5.22562">
        <ele>1239.24</ele>
        <time>2021-05-20T09:33:38.830Z</time>
      </trkpt>
      <trkpt lat="44.99957" lon="5.22541">
        <ele>1234.83</ele>
        <time>2021-05-20T09:34:00.287Z</time>
      </trkpt>
      <trkpt lat="44.99958" lon="5.22515">
        <ele>1229.26</ele>
        <time>2021-05-20T09:34:29.000Z</time>
      </trkpt>
      <trkpt lat="44.99968" lon="5.22493">
        <ele>1225.09</ele>
        <time>2021-05-20T09:34:53.000Z</time>
      </trkpt>
      <trkpt lat="44.99986" lon="5.22485">
        <ele>1220.81</ele>
        <time>2021-05-20T09:35:11.241Z</time>
      </trkpt>
      <trkpt lat="45.00003" lon="5.22489">
        <ele>1215.58</ele>
        <time>2021-05-20T09:36:52.000Z</time>
      </trkpt>
      <trkpt lat="45.00019" lon="5.22475">
        <ele>1210.88</ele>
        <time>2021-05-20T09:37:25.816Z</time>
      </trkpt>
      <trkpt lat="45.00035" lon="5.22461">
        <ele>1205.73</ele>
        <time>2021-05-20T09:38:02.840Z</time>
      </trkpt>
      <trkpt lat="45.00047" lon="5.2244">
        <ele>1199.89</ele>
        <time>2021-05-20T09:38:29.684Z</time>
      </trkpt>
      <trkpt lat="45.00062" lon="5.22425">
        <ele>1194.89</ele>
        <time>2021-05-20T09:38:55.260Z</time>
      </trkpt>
      <trkpt lat="45.00075" lon="5.22406">
        <ele>1185.9</ele>
        <time>2021-05-20T09:39:20.000Z</time>
      </trkpt>
      <trkpt lat="45.00085" lon="5.22385">
        <ele>1179.29</ele>
        <time>2021-05-20T09:39:45.489Z</time>
      </trkpt>
      <trkpt lat="45.00098" lon="5.22366">
        <ele>1172.37</ele>
        <time>2021-05-20T09:40:17.366Z</time>
      </trkpt>
      <trkpt lat="45.00107" lon="5.22344">
        <ele>1168.93</ele>
        <time>2021-05-20T09:40:34.822Z</time>
      </trkpt>
      <trkpt lat="45.00116" lon="5.22322">
        <ele>1163.37</ele>
        <time>2021-05-20T09:40:58.490Z</time>
      </trkpt>
      <trkpt lat="45.00119" lon="5.22296">
        <ele>1159.01</ele>
        <time>2021-05-20T09:41:35.000Z</time>
      </trkpt>
      <trkpt lat="45.00127" lon="5.22272">
        <ele>1155.44</ele>
        <time>2021-05-20T09:41:55.000Z</time>
      </trkpt>
      <trkpt lat="45.00134" lon="5.22248">
        <ele>1152.11</ele>
        <time>2021-05-20T09:42:15.000Z</time>
      </trkpt>
      <trkpt lat="45.00134" lon="5.22221">
        <ele>1147.98</ele>
        <time>2021-05-20T09:42:35.787Z</time>
      </trkpt>
      <trkpt lat="45.00137" lon="5.22195">
        <ele>1145.94</ele>
        <time>2021-05-20T09:42:51.448Z</time>
      </trkpt>
      <trkpt lat="45.00139" lon="5.22169">
        <ele>1144.3</ele>
        <time>2021-05-20T09:43:19.528Z</time>
      </trkpt>
      <trkpt lat="45.00144" lon="5.22145">
        <ele>1144.54</ele>
        <time>2021-05-20T09:45:21.000Z</time>
      </trkpt>
      <trkpt lat="45.0015" lon="5.2212">
        <ele>1142.51</ele>
        <time>2021-05-20T09:46:13.870Z</time>
      </trkpt>
      <trkpt lat="45.00157" lon="5.22096">
        <ele>1142.21</ele>
        <time>2021-05-20T09:46:35.409Z</time>
      </trkpt>
      <trkpt lat="45.00169" lon="5.22077">
        <ele>1140.84</ele>
        <time>2021-05-20T09:46:51.000Z</time>
      </trkpt>
      <trkpt lat="45.00179" lon="5.22054">
        <ele>1139.39</ele>
        <time>2021-05-20T09:47:04.588Z</time>
      </trkpt>
      <trkpt lat="45.00186" lon="5.2203">
        <ele>1138.56</ele>
        <time>2021-05-20T09:47:23.843Z</time>
      </trkpt>
      <trkpt lat="45.00182" lon="5.22004">
        <ele>1138.15</ele>
        <time>2021-05-20T09:47:45.000Z</time>
      </trkpt>
      <trkpt lat="45.00176" lon="5.21979">
        <ele>1138.7</ele>
        <time>2021-05-20T09:48:04.730Z</time>
      </trkpt>
      <trkpt lat="45.00167" lon="5.21956">
        <ele>1139.22</ele>
        <time>2021-05-20T09:48:21.787Z</time>
      </trkpt>
      <trkpt lat="45.0016" lon="5.21933">
        <ele>1140.56</ele>
        <time>2021-05-20T09:48:35.906Z</time>
      </trkpt>
      <trkpt lat="45.00145" lon="5.21918">
        <ele>1142.38</ele>
        <time>2021-05-20T09:49:18.000Z</time>
      </trkpt>
      <trkpt lat="45.00154" lon="5.21896">
        <ele>1142.88</ele>
        <time>2021-05-20T09:50:43.000Z</time>
      </trkpt>
      <trkpt lat="45.00157" lon="5.2187">
        <ele>1141.95</ele>
        <time>2021-05-20T09:50:54.528Z</time>
      </trkpt>
      <trkpt lat="45.00167" lon="5.21849">
        <ele>1140.85</ele>
        <time>2021-05-20T09:51:43.465Z</time>
      </trkpt>
      <trkpt lat="45.00178" lon="5.21828">
        <ele>1139.28</ele>
        <time>2021-05-20T09:52:14.603Z</time>
      </trkpt>
      <trkpt lat="45.00187" lon="5.21806">
        <ele>1138.72</ele>
        <time>2021-05-20T09:52:35.960Z</time>
      </trkpt>
      <trkpt lat="45.00202" lon="5.21789">
        <ele>1134.96</ele>
        <time>2021-05-20T09:53:10.899Z</time>
      </trkpt>
      <trkpt lat="45.00219" lon="5.21796">
        <ele>1133.23</ele>
        <time>2021-05-20T09:53:36.029Z</time>
      </trkpt>
      <trkpt lat="45.00237" lon="5.21805">
        <ele>1133.08</ele>
        <time>2021-05-20T09:53:49.882Z</time>
      </trkpt>
      <trkpt lat="45.00254" lon="5.21808">
        <ele>1130.81</ele>
        <time>2021-05-20T09:54:05.000Z</time>
      </trkpt>
      <trkpt lat="45.0027" lon="5.21793">
        <ele>1123.22</ele>
        <time>2021-05-20T09:54:40.000Z</time>
      </trkpt>
      <trkpt lat="45.00285" lon="5.21778">
        <ele>1117.19</ele>
        <time>2021-05-20T09:55:14.000Z</time>
      </trkpt>
      <trkpt lat="45.00301" lon="5.21766">
        <ele>1114.58</ele>
        <time>2021-05-20T09:55:31.745Z</time>
      </trkpt>
      <trkpt lat="45.00317" lon="5.21754">
        <ele>1109.66</ele>
        <time>2021-05-20T09:55:50.000Z</time>
      </trkpt>
      <trkpt lat="45.00335" lon="5.21746">
        <ele>1101.55</ele>
        <time>2021-05-20T09:56:32.000Z</time>
      </trkpt>
      <trkpt lat="45.00352" lon="5.21737">
        <ele>1095.08</ele>
        <time>2021-05-20T09:56:56.389Z</time>
      </trkpt>
      <trkpt lat="45.00368" lon="5.21723">
        <ele>1090.72</ele>
        <time>2021-05-20T09:57:17.647Z</time>
      </trkpt>
      <trkpt lat="45.00386" lon="5.21717">
        <ele>1088.19</ele>
        <time>2021-05-20T09:57:28.384Z</time>
      </trkpt>
      <trkpt lat="45.00404" lon="5.21712">
        <ele>1084.74</ele>
        <time>2021-05-20T09:57:47.000Z</time>
      </trkpt>
      <trkpt lat="45.00422" lon="5.21709">
        <ele>1080.54</ele>
        <time>2021-05-20T09:58:03.520Z</time>
      </trkpt>
      <trkpt lat="45.00441" lon="5.21704">
        <ele>1077.39</ele>
        <time>2021-05-20T09:58:21.000Z</time>
      </trkpt>
      <trkpt lat="45.00459" lon="5.21701">
        <ele>1074.53</ele>
        <time>2021-05-20T09:58:36.386Z</time>
      </trkpt>
      <trkpt lat="45.00477" lon="5.2169">
        <ele>1068.1</ele>
        <time>2021-05-20T09:59:11.303Z</time>
      </trkpt>
      <trkpt lat="45.00491" lon="5.21674">
        <ele>1063.21</ele>
        <time>2021-05-20T09:59:25.583Z</time>
      </trkpt>
      <trkpt lat="45.00509" lon="5.21672">
        <ele>1058.34</ele>
        <time>2021-05-20T09:59:43.921Z</time>
      </trkpt>
      <trkpt lat="45.00528" lon="5.21677">
        <ele>1052.72</ele>
        <time>2021-05-20T10:00:13.571Z</time>
      </trkpt>
      <trkpt lat="45.00545" lon="5.21668">
        <ele>1046.5</ele>
        <time>2021-05-20T10:00:38.690Z</time>
      </trkpt>
      <trkpt lat="45.00562" lon="5.21658">
        <ele>1039.69</ele>
        <time>2021-05-20T10:01:14.506Z</time>
      </trkpt>
      <trkpt lat="45.00581" lon="5.2166">
        <ele>1035.85</ele>
        <time>2021-05-20T10:01:33.623Z</time>
      </trkpt>
      <trkpt lat="45.00599" lon="5.21666">
        <ele>1032.33</ele>
        <time>2021-05-20T10:01:51.000Z</time>
      </trkpt>
      <trkpt lat="45.00617" lon="5.21672">
        <ele>1028.74</ele>
        <time>2021-05-20T10:02:10.237Z</time>
      </trkpt>
      <trkpt lat="45.00634" lon="5.21684">
        <ele>1023.63</ele>
        <time>2021-05-20T10:02:29.649Z</time>
      </trkpt>
      <trkpt lat="45.00638" lon="5.21658">
        <ele>1016.65</ele>
        <time>2021-05-20T10:03:06.000Z</time>
      </trkpt>
      <trkpt lat="45.00642" lon="5.21632">
        <ele>1013.44</ele>
        <time>2021-05-20T10:03:24.664Z</time>
      </trkpt>
      <trkpt lat="45.00644" lon="5.21605">
        <ele>1007.63</ele>
        <time>2021-05-20T10:03:49.803Z</time>
      </trkpt>
      <trkpt lat="45.00655" lon="5.21583">
        <ele>1003.91</ele>
        <time>2021-05-20T10:04:05.731Z</time>
      </trkpt>
      <trkpt lat="45.00673" lon="5.21575">
        <ele>1001.02</ele>
        <time>2021-05-20T10:04:36.265Z</time>
      </trkpt>
      <trkpt lat="45.00689" lon="5.21561">
        <ele>1001.97</ele>
        <time>2021-05-20T10:05:07.758Z</time>
      </trkpt>
      <trkpt lat="45.00705" lon="5.21572">
        <ele>999.82</ele>
        <time>2021-05-20T10:05:22.368Z</time>
      </trkpt>
      <trkpt lat="45.00721" lon="5.21585">
        <ele>998.8</ele>
        <time>2021-05-20T10:05:37.587Z</time>
      </trkpt>
      <trkpt lat="45.00735" lon="5.21602">
        <ele>998.68</ele>
        <time>2021-05-20T10:05:53.584Z</time>
      </trkpt>
      <trkpt lat="45.00749" lon="5.21619">
        <ele>997.22</ele>
        <time>2021-05-20T10:06:09.741Z</time>
      </trkpt>
      <trkpt lat="45.00761" lon="5.21599">
        <ele>1001.16</ele>
        <time>2021-05-20T10:07:08.000Z</time>
      </trkpt>
      <trkpt lat="45.00773" lon="5.2158">
        <ele>1005.7</ele>
        <time>2021-05-20T10:07:39.000Z</time>
      </trkpt>
      <trkpt lat="45.00784" lon="5.21559">
        <ele>1011.15</ele>
        <time>2021-05-20T10:07:59.568Z</time>
      </trkpt>
      <trkpt lat="45.00795" lon="5.21538">
        <ele>1014.48</ele>
        <time>2021-05-20T10:08:25.504Z</time>
      </trkpt>
      <trkpt lat="45.00805" lon="5.21516">
        <ele>1017.35</ele>
        <time>2021-05-20T10:08:41.462Z</time>
      </trkpt>
      <trkpt lat="45.00811" lon="5.21491">
        <ele>1017.26</ele>
        <time>2021-05-20T10:09:00.580Z</time>
      </trkpt>
      <trkpt lat="45.0082" lon="5.21467">
        <ele>1014.58</ele>
        <time>2021-05-20T10:09:21.812Z</time>
      </trkpt>
      <trkpt lat="45.00826" lon="5.21442">
        <ele>1005.97</ele>
        <time>2021-05-20T10:10:01.386Z</time>
      </trkpt>
      <trkpt lat="45.00837" lon="5.21421">
        <ele>999.86</ele>
        <time>2021-05-20T10:10:21.920Z</time>
      </trkpt>
      <trkpt lat="45.00845" lon="5.21397">
        <ele>990.06</ele>
        <time>2021-05-20T10:10:51.258Z</time>
      </trkpt>
      <trkpt lat="45.00851" lon="5.21373">
        <ele>982.52</ele>
        <time>2021-05-20T10:11:32.000Z</time>
      </trkpt>
      <trkpt lat="45.00858" lon="5.2135">
        <ele>975.2</ele>
        <time>2021-05-20T10:12:40.307Z</time>
      </trkpt>
      <trkpt lat="45.00858" lon="5.21323">
        <ele>971.75</ele>
        <time>2021-05-20T10:13:04.507Z</time>
      </trkpt>
      <trkpt lat="45.00863" lon="5.21298">
        <ele>970.01</ele>
        <time>2021-05-20T10:13:31.849Z</time>
      </trkpt>
      <trkpt lat="45.00871" lon="5.21275">
        <ele>968.81</ele>
        <time>2021-05-20T10:13:48.528Z</time>
      </trkpt>
      <trkpt lat="45.00876" lon="5.2125">
        <ele>968.35</ele>
        <time>2021-05-20T10:14:28.626Z</time>
      </trkpt>
      <trkpt lat="45.00881" lon="5.21224">
        <ele>967.14</ele>
        <time>2021-05-20T10:14:44.000Z</time>
      </trkpt>
      <trkpt lat="45.00863" lon="5.21219">
        <ele>961.72</ele>
        <time>2021-05-20T10:16:04.824Z</time>
      </trkpt>
      <trkpt lat="45.00844" lon="5.21224">
        <ele>960.63</ele>
        <time>2021-05-20T10:16:24.864Z</time>
      </trkpt>
      <trkpt lat="45.00826" lon="5.21233">
        <ele>956.64</ele>
        <time>2021-05-20T10:16:48.384Z</time>
      </trkpt>
      <trkpt lat="45.00823" lon="5.21258">
        <ele>950.01</ele>
        <time>2021-05-20T10:17:24.000Z</time>
      </trkpt>
      <trkpt lat="45.00815" lon="5.21283">
        <ele>947.62</ele>
        <time>2021-05-20T10:17:40.624Z</time>
      </trkpt>
      <trkpt lat="45.00802" lon="5.21303">
        <ele>942.75</ele>
        <time>2021-05-20T10:18:02.604Z</time>
      </trkpt>
      <trkpt lat="45.00785" lon="5.21313">
        <ele>940.22</ele>
        <time>2021-05-20T10:18:17.842Z</time>
      </trkpt>
      <trkpt lat="45.00767" lon="5.2132">
        <ele>936.52</ele>
        <time>2021-05-20T10:18:50.530Z</time>
      </trkpt>
      <trkpt lat="45.00749" lon="5.21326">
        <ele>933.85</ele>
        <time>2021-05-20T10:19:07.488Z</time>
      </trkpt>
      <trkpt lat="45.00733" lon="5.21338">
        <ele>929.97</ele>
        <time>2021-05-20T10:19:28.000Z</time>
      </trkpt>
      <trkpt lat="45.00716" lon="5.21348">
        <ele>927.23</ele>
        <time>2021-05-20T10:19:49.345Z</time>
      </trkpt>
      <trkpt lat="45.00697" lon="5.21355">
        <ele>923.57</ele>
        <time>2021-05-20T10:20:09.684Z</time>
      </trkpt>
      <trkpt lat="45.00681" lon="5.21367">
        <ele>920.17</ele>
        <time>2021-05-20T10:20:28.422Z</time>
      </trkpt>
      <trkpt lat="45.0067" lon="5.21346">
        <ele>913.02</ele>
        <time>2021-05-20T10:22:12.999Z</time>
      </trkpt>
      <trkpt lat="45.00681" lon="5.21324">
        <ele>908.85</ele>
        <time>2021-05-20T10:22:29.581Z</time>
      </trkpt>
      <trkpt lat="45.00695" lon="5.21307">
        <ele>904.46</ele>
        <time>2021-05-20T10:22:49.650Z</time>
      </trkpt>
      <trkpt lat="45.00706" lon="5.21286">
        <ele>901.4</ele>
        <time>2021-05-20T10:23:06.547Z</time>
      </trkpt>
      <trkpt lat="45.00718" lon="5.21265">
        <ele>899.31</ele>
        <time>2021-05-20T10:23:23.921Z</time>
      </trkpt>
      <trkpt lat="45.007" lon="5.2127">
        <ele>891.29</ele>
        <time>2021-05-20T10:24:32.944Z</time>
      </trkpt>
      <trkpt lat="45.00681" lon="5.21273">
        <ele>887.73</ele>
        <time>2021-05-20T10:24:52.743Z</time>
      </trkpt>
      <trkpt lat="45.00665" lon="5.21287">
        <ele>885.54</ele>
        <time>2021-05-20T10:25:12.901Z</time>
      </trkpt>
      <trkpt lat="45.00647" lon="5.21293">
        <ele>882.02</ele>
        <time>2021-05-20T10:25:49.431Z</time>
      </trkpt>
      <trkpt lat="45.00628" lon="5.21297">
        <ele>878.22</ele>
        <time>2021-05-20T10:26:05.127Z</time>
      </trkpt>
      <trkpt lat="45.0061" lon="5.21299">
        <ele>874.68</ele>
        <time>2021-05-20T10:26:21.786Z</time>
      </trkpt>
      <trkpt lat="45.00591" lon="5.21298">
        <ele>870.36</ele>
        <time>2021-05-20T10:26:37.724Z</time>
      </trkpt>
      <trkpt lat="45.00573" lon="5.21298">
        <ele>868.3</ele>
        <time>2021-05-20T10:26:53.548Z</time>
      </trkpt>
      <trkpt lat="45.00556" lon="5.21309">
        <ele>865.51</ele>
        <time>2021-05-20T10:27:12.999Z</time>
      </trkpt>
      <trkpt lat="45.00538" lon="5.21309">
        <ele>862.65</ele>
        <time>2021-05-20T10:27:28.904Z</time>
      </trkpt>
      <trkpt lat="45.0052" lon="5.21308">
        <ele>859.77</ele>
        <time>2021-05-20T10:27:44.923Z</time>
      </trkpt>
      <trkpt lat="45.00505" lon="5.21293">
        <ele>857.51</ele>
        <time>2021-05-20T10:27:58.443Z</time>
      </trkpt>
      <trkpt lat="45.00498" lon="5.21268">
        <ele>855.03</ele>
        <time>2021-05-20T10:28:11.919Z</time>
      </trkpt>
      <trkpt lat="45.00487" lon="5.21247">
        <ele>851.39</ele>
        <time>2021-05-20T10:28:28.299Z</time>
      </trkpt>
      <trkpt lat="45.0047" lon="5.21238">
        <ele>848.44</ele>
        <time>2021-05-20T10:28:43.565Z</time>
      </trkpt>
      <trkpt lat="45.00457" lon="5.21221">
        <ele>843.98</ele>
        <time>2021-05-20T10:29:20.999Z</time>
      </trkpt>
      <trkpt lat="45.00475" lon="5.21225">
        <ele>844.36</ele>
        <time>2021-05-20T10:30:21.205Z</time>
      </trkpt>
      <trkpt lat="45.00494" lon="5.21223">
        <ele>843.44</ele>
        <time>2021-05-20T10:30:36.999Z</time>
      </trkpt>
      <trkpt lat="45.00513" lon="5.21225">
        <ele>840.97</ele>
        <time>2021-05-20T10:30:53.999Z</time>
      </trkpt>
      <trkpt lat="45.00531" lon="5.21223">
        <ele>836.19</ele>
        <time>2021-05-20T10:31:13.402Z</time>
      </trkpt>
      <trkpt lat="45.00549" lon="5.2122">
        <ele>832.96</ele>
        <time>2021-05-20T10:31:27.768Z</time>
      </trkpt>
      <trkpt lat="45.00565" lon="5.21206">
        <ele>829.98</ele>
        <time>2021-05-20T10:31:41.727Z</time>
      </trkpt>
      <trkpt lat="45.00582" lon="5.21197">
        <ele>829.56</ele>
        <time>2021-05-20T10:31:56.643Z</time>
      </trkpt>
      <trkpt lat="45.00593" lon="5.21177">
        <ele>828.54</ele>
        <time>2021-05-20T10:32:10.248Z</time>
      </trkpt>
      <trkpt lat="45.00575" lon="5.21178">
        <ele>821.29</ele>
        <time>2021-05-20T10:32:57.999Z</time>
      </trkpt>
      <trkpt lat="45.00557" lon="5.21187">
        <ele>816.76</ele>
        <time>2021-05-20T10:33:15.508Z</time>
      </trkpt>
      <trkpt lat="45.00539" lon="5.21186">
        <ele>815.4</ele>
        <time>2021-05-20T10:33:30.348Z</time>
      </trkpt>
      <trkpt lat="45.00523" lon="5.21174">
        <ele>811.61</ele>
        <time>2021-05-20T10:33:45.999Z</time>
      </trkpt>
      <trkpt lat="45.00509" lon="5.21158">
        <ele>808.17</ele>
        <time>2021-05-20T10:34:03.503Z</time>
      </trkpt>
      <trkpt lat="45.00493" lon="5.21145">
        <ele>805.18</ele>
        <time>2021-05-20T10:34:18.999Z</time>
      </trkpt>
      <trkpt lat="45.00478" lon="5.2113">
        <ele>801.3</ele>
        <time>2021-05-20T10:34:36.809Z</time>
      </trkpt>
      <trkpt lat="45.00464" lon="5.21112">
        <ele>795.58</ele>
        <time>2021-05-20T10:34:55.999Z</time>
      </trkpt>
      <trkpt lat="45.00455" lon="5.21089">
        <ele>790.11</ele>
        <time>2021-05-20T10:35:16.860Z</time>
      </trkpt>
      <trkpt lat="45.0047" lon="5.21074">
        <ele>786.26</ele>
        <time>2021-05-20T10:35:38.500Z</time>
      </trkpt>
      <trkpt lat="45.00488" lon="5.2107">
        <ele>783.95</ele>
        <time>2021-05-20T10:35:54.709Z</time>
      </trkpt>
      <trkpt lat="45.00504" lon="5.21056">
        <ele>780.77</ele>
        <time>2021-05-20T10:36:12.999Z</time>
      </trkpt>
      <trkpt lat="45.00487" lon="5.21047">
        <ele>776.54</ele>
        <time>2021-05-20T10:36:50.666Z</time>
      </trkpt>
      <trkpt lat="45.00475" lon="5.21028">
        <ele>772.55</ele>
        <time>2021-05-20T10:37:33.349Z</time>
      </trkpt>
      <trkpt lat="45.00465" lon="5.21006">
        <ele>764.94</ele>
        <time>2021-05-20T10:37:51.828Z</time>
      </trkpt>
      <trkpt lat="45.0045" lon="5.20991">
        <ele>761.23</ele>
        <time>2021-05-20T10:38:09.564Z</time>
      </trkpt>
      <trkpt lat="45.00439" lon="5.20969">
        <ele>755.28</ele>
        <time>2021-05-20T10:38:29.763Z</time>
      </trkpt>
      <trkpt lat="45.00427" lon="5.20948">
        <ele>749.25</ele>
        <time>2021-05-20T10:38:50.999Z</time>
      </trkpt>
      <trkpt lat="45.00414" lon="5.20929">
        <ele>743.87</ele>
        <time>2021-05-20T10:39:10.749Z</time>
      </trkpt>
      <trkpt lat="45.00402" lon="5.20909">
        <ele>739.8</ele>
        <time>2021-05-20T10:39:24.867Z</time>
      </trkpt>
      <trkpt lat="45.00389" lon="5.20891">
        <ele>736.08</ele>
        <time>2021-05-20T10:39:40.214Z</time>
      </trkpt>
      <trkpt lat="45.00378" lon="5.20869">
        <ele>731.63</ele>
        <time>2021-05-20T10:39:55.063Z</time>
      </trkpt>
      <trkpt lat="45.00371" lon="5.20844">
        <ele>728.62</ele>
        <time>2021-05-20T10:40:19.999Z</time>
      </trkpt>
      <trkpt lat="45.00361" lon="5.20822">
        <ele>724.75</ele>
        <time>2021-05-20T10:40:35.999Z</time>
      </trkpt>
      <trkpt lat="45.00355" lon="5.20797">
        <ele>719.06</ele>
        <time>2021-05-20T10:41:11.548Z</time>
      </trkpt>
      <trkpt lat="45.0035" lon="5.20772">
        <ele>714.55</ele>
        <time>2021-05-20T10:41:36.999Z</time>
      </trkpt>
      <trkpt lat="45.0035" lon="5.20746">
        <ele>711.01</ele>
        <time>2021-05-20T10:41:51.582Z</time>
      </trkpt>
      <trkpt lat="45.00339" lon="5.20724">
        <ele>707.11</ele>
        <time>2021-05-20T10:42:08.500Z</time>
      </trkpt>
      <trkpt lat="45.00336" lon="5.20698">
        <ele>702.25</ele>
        <time>2021-05-20T10:42:26.468Z</time>
      </trkpt>
      <trkpt lat="45.00332" lon="5.20672">
        <ele>699.6</ele>
        <time>2021-05-20T10:42:40.666Z</time>
      </trkpt>
      <trkpt lat="45.00334" lon="5.20646">
        <ele>698.89</ele>
        <time>2021-05-20T10:42:53.584Z</time>
      </trkpt>
      <trkpt lat="45.00331" lon="5.20621">
        <ele>696.6</ele>
        <time>2021-05-20T10:43:09.803Z</time>
      </trkpt>
      <trkpt lat="45.00324" lon="5.20597">
        <ele>693.83</ele>
        <time>2021-05-20T10:43:21.001Z</time>
      </trkpt>
      <trkpt lat="45.00321" lon="5.20572">
        <ele>692.12</ele>
        <time>2021-05-20T10:43:34.683Z</time>
      </trkpt>
      <trkpt lat="45.00311" lon="5.20548">
        <ele>689.53</ele>
        <time>2021-05-20T10:43:51.999Z</time>
      </trkpt>
      <trkpt lat="45.00314" lon="5.20522">
        <ele>686.04</ele>
        <time>2021-05-20T10:45:41.248Z</time>
      </trkpt>
      <trkpt lat="45.00311" lon="5.20496">
        <ele>684.32</ele>
        <time>2021-05-20T10:45:53.766Z</time>
      </trkpt>
      <trkpt lat="45.00309" lon="5.20469">
        <ele>681.58</ele>
        <time>2021-05-20T10:46:10.804Z</time>
      </trkpt>
      <trkpt lat="45.00308" lon="5.20443">
        <ele>679.39</ele>
        <time>2021-05-20T10:46:25.624Z</time>
      </trkpt>
      <trkpt lat="45.00305" lon="5.20418">
        <ele>677.79</ele>
        <time>2021-05-20T10:46:39.403Z</time>
      </trkpt>
      <trkpt lat="45.00302" lon="5.20391">
        <ele>674.54</ele>
        <time>2021-05-20T10:46:55.570Z</time>
      </trkpt>
      <trkpt lat="45.00299" lon="5.20366">
        <ele>671.55</ele>
        <time>2021-05-20T10:47:12.788Z</time>
      </trkpt>
      <trkpt lat="45.00295" lon="5.20341">
        <ele>669.47</ele>
        <time>2021-05-20T10:47:31.666Z</time>
      </trkpt>
      <trkpt lat="45.00287" lon="5.20316">
        <ele>667.59</ele>
        <time>2021-05-20T10:47:46.999Z</time>
      </trkpt>
      <trkpt lat="45.0028" lon="5.20292">
        <ele>665.8</ele>
        <time>2021-05-20T10:48:01.301Z</time>
      </trkpt>
      <trkpt lat="45.00271" lon="5.2027">
        <ele>664.96</ele>
        <time>2021-05-20T10:48:15.999Z</time>
      </trkpt>
      <trkpt lat="45.00259" lon="5.2025">
        <ele>664.17</ele>
        <time>2021-05-20T10:48:43.246Z</time>
      </trkpt>
      <trkpt lat="45.0025" lon="5.20227">
        <ele>662.99</ele>
        <time>2021-05-20T10:48:58.588Z</time>
      </trkpt>
      <trkpt lat="45.0024" lon="5.20204">
        <ele>661.38</ele>
        <time>2021-05-20T10:49:13.827Z</time>
      </trkpt>
      <trkpt lat="45.00226" lon="5.20187">
        <ele>658.82</ele>
        <time>2021-05-20T10:50:00.467Z</time>
      </trkpt>
      <trkpt lat="45.0022" lon="5.20163">
        <ele>656.81</ele>
        <time>2021-05-20T10:50:17.607Z</time>
      </trkpt>
      <trkpt lat="45.00213" lon="5.20139">
        <ele>655.08</ele>
        <time>2021-05-20T10:50:32.663Z</time>
      </trkpt>
      <trkpt lat="45.00202" lon="5.20116">
        <ele>652.41</ele>
        <time>2021-05-20T10:50:52.920Z</time>
      </trkpt>
      <trkpt lat="45.00194" lon="5.20093">
        <ele>651.66</ele>
        <time>2021-05-20T10:51:07.999Z</time>
      </trkpt>
      <trkpt lat="45.00182" lon="5.2007">
        <ele>649.44</ele>
        <time>2021-05-20T10:51:34.549Z</time>
      </trkpt>
      <trkpt lat="45.0017" lon="5.20051">
        <ele>647.63</ele>
        <time>2021-05-20T10:52:10.746Z</time>
      </trkpt>
      <trkpt lat="45.0016" lon="5.20028">
        <ele>646.01</ele>
        <time>2021-05-20T10:52:24.764Z</time>
      </trkpt>
      <trkpt lat="45.00148" lon="5.20009">
        <ele>643.39</ele>
        <time>2021-05-20T10:52:40.443Z</time>
      </trkpt>
      <trkpt lat="45.00133" lon="5.19994">
        <ele>641.75</ele>
        <time>2021-05-20T10:52:58.628Z</time>
      </trkpt>
      <trkpt lat="45.00117" lon="5.19981">
        <ele>639.78</ele>
        <time>2021-05-20T10:53:17.256Z</time>
      </trkpt>
      <trkpt lat="45.00099" lon="5.19973">
        <ele>637.9</ele>
        <time>2021-05-20T10:54:04.524Z</time>
      </trkpt>
      <trkpt lat="45.00082" lon="5.19966">
        <ele>635.57</ele>
        <time>2021-05-20T10:54:16.584Z</time>
      </trkpt>
      <trkpt lat="45.00065" lon="5.19954">
        <ele>634.65</ele>
        <time>2021-05-20T10:54:30.486Z</time>
      </trkpt>
      <trkpt lat="45.00048" lon="5.19943">
        <ele>633.73</ele>
        <time>2021-05-20T10:54:46.624Z</time>
      </trkpt>
      <trkpt lat="45.00029" lon="5.19938">
        <ele>632.09</ele>
        <time>2021-05-20T10:55:37.396Z</time>
      </trkpt>
      <trkpt lat="45.00012" lon="5.19933">
        <ele>628.26</ele>
        <time>2021-05-20T10:56:00.247Z</time>
      </trkpt>
      <trkpt lat="44.99993" lon="5.19936">
        <ele>625.64</ele>
        <time>2021-05-20T10:56:16.566Z</time>
      </trkpt>
      <trkpt lat="44.99975" lon="5.19937">
        <ele>623.66</ele>
        <time>2021-05-20T10:56:54.383Z</time>
      </trkpt>
      <trkpt lat="44.99957" lon="5.19933">
        <ele>620.33</ele>
        <time>2021-05-20T10:57:13.265Z</time>
      </trkpt>
      <trkpt lat="44.99938" lon="5.19929">
        <ele>617.17</ele>
        <time>2021-05-20T10:57:31.303Z</time>
      </trkpt>
      <trkpt lat="44.9992" lon="5.19924">
        <ele>615.47</ele>
        <time>2021-05-20T10:57:46.804Z</time>
      </trkpt>
      <trkpt lat="44.99902" lon="5.19927">
        <ele>612.65</ele>
        <time>2021-05-20T10:58:02.441Z</time>
      </trkpt>
      <trkpt lat="44.99883" lon="5.1993">
        <ele>610.72</ele>
        <time>2021-05-20T10:58:19.480Z</time>
      </trkpt>
      <trkpt lat="44.99866" lon="5.19937">
        <ele>608.92</ele>
        <time>2021-05-20T10:58:36.999Z</time>
      </trkpt>
      <trkpt lat="44.99847" lon="5.19934">
        <ele>606.56</ele>
        <time>2021-05-20T10:58:52.270Z</time>
      </trkpt>
      <trkpt lat="44.99829" lon="5.19928">
        <ele>602.75</ele>
        <time>2021-05-20T10:59:08.790Z</time>
      </trkpt>
      <trkpt lat="44.99811" lon="5.19917">
        <ele>600.51</ele>
        <time>2021-05-20T10:59:25.447Z</time>
      </trkpt>
      <trkpt lat="44.99794" lon="5.19905">
        <ele>598.37</ele>
        <time>2021-05-20T10:59:41.765Z</time>
      </trkpt>
      <trkpt lat="44.99777" lon="5.19892">
        <ele>595.65</ele>
        <time>2021-05-20T10:59:57.924Z</time>
      </trkpt>
      <trkpt lat="44.99764" lon="5.19873">
        <ele>593.23</ele>
        <time>2021-05-20T11:00:13.441Z</time>
      </trkpt>
      <trkpt lat="44.99747" lon="5.19861">
        <ele>589.8</ele>
        <time>2021-05-20T11:01:42.999Z</time>
      </trkpt>
      <trkpt lat="44.99729" lon="5.19855">
        <ele>588.32</ele>
        <time>2021-05-20T11:01:58.368Z</time>
      </trkpt>
      <trkpt lat="44.99711" lon="5.19846">
        <ele>585.7</ele>
        <time>2021-05-20T11:02:13.567Z</time>
      </trkpt>
      <trkpt lat="44.99695" lon="5.19835">
        <ele>583.25</ele>
        <time>2021-05-20T11:02:28.666Z</time>
      </trkpt>
      <trkpt lat="44.99679" lon="5.19818">
        <ele>580.84</ele>
        <time>2021-05-20T11:02:46.842Z</time>
      </trkpt>
      <trkpt lat="44.99663" lon="5.19809">
        <ele>578.4</ele>
        <time>2021-05-20T11:07:04.999Z</time>
      </trkpt>
      <trkpt lat="44.99649" lon="5.19792">
        <ele>576.39</ele>
        <time>2021-05-20T11:07:25.641Z</time>
      </trkpt>
      <trkpt lat="44.99631" lon="5.19785">
        <ele>573.61</ele>
        <time>2021-05-20T11:07:59.999Z</time>
      </trkpt>
      <trkpt lat="44.99618" lon="5.19767">
        <ele>573.18</ele>
        <time>2021-05-20T11:08:25.405Z</time>
      </trkpt>
      <trkpt lat="44.99604" lon="5.19751">
        <ele>570.37</ele>
        <time>2021-05-20T11:08:39.999Z</time>
      </trkpt>
      <trkpt lat="44.9959" lon="5.19734">
        <ele>568.6</ele>
        <time>2021-05-20T11:08:56.744Z</time>
      </trkpt>
      <trkpt lat="44.99574" lon="5.19719">
        <ele>566.77</ele>
        <time>2021-05-20T11:09:14.999Z</time>
      </trkpt>
      <trkpt lat="44.99558" lon="5.19704">
        <ele>562.96</ele>
        <time>2021-05-20T11:09:39.631Z</time>
      </trkpt>
      <trkpt lat="44.99546" lon="5.19684">
        <ele>561.3</ele>
        <time>2021-05-20T11:09:53.323Z</time>
      </trkpt>
      <trkpt lat="44.99532" lon="5.19669">
        <ele>560.85</ele>
        <time>2021-05-20T11:10:08.554Z</time>
      </trkpt>
      <trkpt lat="44.99515" lon="5.19677">
        <ele>567.14</ele>
        <time>2021-05-20T11:13:03.424Z</time>
      </trkpt>
      <trkpt lat="44.99508" lon="5.19654">
        <ele>561.65</ele>
        <time>2021-05-20T11:14:29.466Z</time>
      </trkpt>
      <trkpt lat="44.99523" lon="5.19668">
        <ele>561.85</ele>
        <time>2021-05-20T11:15:48.000Z</time>
      </trkpt>
      <trkpt lat="44.99512" lon="5.19648">
        <ele>559.3</ele>
        <time>2021-05-20T11:16:33.741Z</time>
      </trkpt>
      <trkpt lat="44.99493" lon="5.19642">
        <ele>556.32</ele>
        <time>2021-05-20T11:17:00.720Z</time>
      </trkpt>
      <trkpt lat="44.99475" lon="5.19636">
        <ele>554.71</ele>
        <time>2021-05-20T11:17:13.331Z</time>
      </trkpt>
      <trkpt lat="44.99458" lon="5.19644">
        <ele>551.44</ele>
        <time>2021-05-20T11:17:36.000Z</time>
      </trkpt>
      <trkpt lat="44.99451" lon="5.19668">
        <ele>549.66</ele>
        <time>2021-05-20T11:17:54.166Z</time>
      </trkpt>
      <trkpt lat="44.99437" lon="5.19687">
        <ele>546.98</ele>
        <time>2021-05-20T11:18:12.000Z</time>
      </trkpt>
      <trkpt lat="44.99421" lon="5.19699">
        <ele>544.4</ele>
        <time>2021-05-20T11:18:27.258Z</time>
      </trkpt>
      <trkpt lat="44.99407" lon="5.19717">
        <ele>541.86</ele>
        <time>2021-05-20T11:18:43.000Z</time>
      </trkpt>
      <trkpt lat="44.99388" lon="5.1972">
        <ele>538.96</ele>
        <time>2021-05-20T11:19:06.684Z</time>
      </trkpt>
      <trkpt lat="44.99369" lon="5.19722">
        <ele>537.58</ele>
        <time>2021-05-20T11:19:20.785Z</time>
      </trkpt>
      <trkpt lat="44.99351" lon="5.19731">
        <ele>536.78</ele>
        <time>2021-05-20T11:19:37.000Z</time>
      </trkpt>
      <trkpt lat="44.99335" lon="5.19747">
        <ele>533.8</ele>
        <time>2021-05-20T11:19:53.885Z</time>
      </trkpt>
      <trkpt lat="44.99318" lon="5.19754">
        <ele>531.44</ele>
        <time>2021-05-20T11:20:16.521Z</time>
      </trkpt>
      <trkpt lat="44.993" lon="5.19766">
        <ele>528.65</ele>
        <time>2021-05-20T11:20:44.720Z</time>
      </trkpt>
      <trkpt lat="44.99282" lon="5.19774">
        <ele>526.31</ele>
        <time>2021-05-20T11:21:06.826Z</time>
      </trkpt>
      <trkpt lat="44.99265" lon="5.19784">
        <ele>523.25</ele>
        <time>2021-05-20T11:21:22.627Z</time>
      </trkpt>
      <trkpt lat="44.99247" lon="5.1979">
        <ele>521.24</ele>
        <time>2021-05-20T11:21:39.485Z</time>
      </trkpt>
      <trkpt lat="44.9923" lon="5.19795">
        <ele>520.42</ele>
        <time>2021-05-20T11:21:57.763Z</time>
      </trkpt>
      <trkpt lat="44.99214" lon="5.19808">
        <ele>517.85</ele>
        <time>2021-05-20T11:22:14.302Z</time>
      </trkpt>
      <trkpt lat="44.99194" lon="5.1981">
        <ele>515.24</ele>
        <time>2021-05-20T11:22:38.706Z</time>
      </trkpt>
      <trkpt lat="44.99176" lon="5.19814">
        <ele>513.43</ele>
        <time>2021-05-20T11:22:52.724Z</time>
      </trkpt>
      <trkpt lat="44.99173" lon="5.19788">
        <ele>512.34</ele>
        <time>2021-05-20T11:23:14.402Z</time>
      </trkpt>
      <trkpt lat="44.99189" lon="5.19777">
        <ele>511.08</ele>
        <time>2021-05-20T11:23:30.000Z</time>
      </trkpt>
      <trkpt lat="44.99207" lon="5.1977">
        <ele>509.53</ele>
        <time>2021-05-20T11:24:02.429Z</time>
      </trkpt>
    </trkseg>
  </trk>
</gpx>